Time;durP1;ratioP1;P1;durP2;ratioP2;P2;SDS_P1;SDS_P2;PMS_P1;PMS_P2;Temp;Humidity;BMP_temperature;BMP_pressure;BME280_temperature;BME280_humidity;BME280_pressure;Samples;Min_cycle;Max_cycle;Signal;HPM_P1;HPM_P2
2023/03/06 00:00:22;;;;;;;38.93;23.40;;;5.10;99.90;;;;;;5113215;28;20194;-69
2023/03/06 00:02:48;;;;;;;38.47;24.07;;;5.10;99.90;;;;;;5113165;28;20171;-70
2023/03/06 00:05:14;;;;;;;37.53;23.53;;;5.00;99.90;;;;;;5115238;28;20171;-70
2023/03/06 00:07:41;;;;;;;39.37;24.27;;;5.00;99.90;;;;;;5116996;28;20214;-69
2023/03/06 00:10:07;;;;;;;34.80;23.37;;;5.00;99.90;;;;;;5116714;28;20168;-70
2023/03/06 00:12:33;;;;;;;39.83;24.17;;;4.90;99.90;;;;;;5117078;28;20175;-69
2023/03/06 00:14:58;;;;;;;39.47;25.43;;;4.90;99.90;;;;;;5116922;28;20690;-70
2023/03/06 00:17:25;;;;;;;36.93;23.93;;;4.90;99.90;;;;;;5116838;28;20171;-69
2023/03/06 00:19:51;;;;;;;40.60;26.07;;;5.00;99.90;;;;;;5116806;28;20258;-70
2023/03/06 00:22:18;;;;;;;40.37;25.33;;;5.10;99.90;;;;;;5116553;28;20263;-71
2023/03/06 00:24:43;;;;;;;41.27;25.27;;;5.20;99.90;;;;;;5116346;28;20175;-70
2023/03/06 00:27:09;;;;;;;37.50;25.13;;;5.20;99.90;;;;;;5116693;28;20701;-69
2023/03/06 00:29:35;;;;;;;40.23;25.67;;;5.00;99.90;;;;;;5116819;28;20183;-69
2023/03/06 00:32:00;;;;;;;35.97;24.10;;;5.00;99.90;;;;;;5116539;28;20171;-69
2023/03/06 00:34:26;;;;;;;42.20;25.33;;;5.10;99.90;;;;;;5116474;28;20229;-68
2023/03/06 00:36:52;;;;;;;37.47;25.63;;;5.10;99.90;;;;;;5098202;28;20189;-69
2023/03/06 00:39:18;;;;;;;38.93;25.20;;;5.20;99.90;;;;;;5116083;28;20167;-70
2023/03/06 00:41:44;;;;;;;36.90;24.40;;;5.20;99.90;;;;;;5116571;28;20182;-69
2023/03/06 00:44:09;;;;;;;40.57;24.87;;;5.30;99.90;;;;;;5116429;28;20171;-70
2023/03/06 00:46:35;;;;;;;37.87;24.50;;;5.10;99.90;;;;;;5116323;28;20203;-69
2023/03/06 00:49:00;;;;;;;37.13;24.77;;;5.00;99.90;;;;;;5116294;28;20567;-69
2023/03/06 00:51:26;;;;;;;39.03;24.10;;;5.00;99.90;;;;;;5116284;28;20175;-69
2023/03/06 00:53:52;;;;;;;37.07;24.63;;;5.10;99.90;;;;;;5115892;28;20614;-69
2023/03/06 00:56:18;;;;;;;36.30;22.70;;;5.00;99.90;;;;;;5116207;28;20634;-69
2023/03/06 00:58:44;;;;;;;37.27;22.53;;;5.00;99.90;;;;;;5116303;28;20168;-69
2023/03/06 01:01:10;;;;;;;34.67;23.13;;;5.10;99.90;;;;;;5115921;28;20217;-68
2023/03/06 01:03:35;;;;;;;35.50;23.57;;;5.10;99.90;;;;;;5116001;28;20175;-69
2023/03/06 01:06:01;;;;;;;37.73;23.17;;;5.20;99.90;;;;;;5115581;28;20183;-68
2023/03/06 01:08:27;;;;;;;35.33;23.30;;;5.20;99.90;;;;;;5115701;28;20666;-69
2023/03/06 01:10:52;;;;;;;36.37;22.63;;;5.20;99.90;;;;;;5115953;28;20164;-68
2023/03/06 01:13:18;;;;;;;37.60;22.53;;;5.20;99.90;;;;;;5115977;28;20627;-68
2023/03/06 01:15:44;;;;;;;34.23;22.87;;;5.20;99.90;;;;;;5115478;28;20177;-68
2023/03/06 01:18:09;;;;;;;34.40;23.07;;;5.20;99.90;;;;;;5115704;28;20585;-68
2023/03/06 01:20:35;;;;;;;35.13;22.70;;;5.30;99.90;;;;;;5115406;28;20258;-68
2023/03/06 01:23:00;;;;;;;35.47;23.67;;;5.40;99.90;;;;;;5115209;28;20266;-69
2023/03/06 01:25:26;;;;;;;33.57;23.03;;;5.40;99.90;;;;;;5115501;28;20565;-68
2023/03/06 01:27:52;;;;;;;41.00;24.67;;;5.30;99.90;;;;;;5115491;28;20221;-69
2023/03/06 01:30:18;;;;;;;36.17;22.87;;;5.40;99.90;;;;;;5115514;28;20182;-69
2023/03/06 01:32:44;;;;;;;39.73;24.93;;;5.30;99.90;;;;;;5115412;28;20254;-69
2023/03/06 01:35:11;;;;;;;34.87;23.17;;;5.20;99.90;;;;;;5115027;28;20191;-69
2023/03/06 01:37:38;;;;;;;38.90;23.60;;;5.30;99.90;;;;;;5115193;28;20178;-69
2023/03/06 01:40:05;;;;;;;35.77;23.47;;;5.30;99.90;;;;;;5115499;28;20175;-68
2023/03/06 01:42:31;;;;;;;34.77;23.13;;;5.30;99.90;;;;;;5115155;28;20178;-68
2023/03/06 01:45:23;;;;;;;33.97;23.10;;;5.30;99.90;;;;;;5115149;28;20542;-69
2023/03/06 01:47:49;;;;;;;37.47;23.63;;;5.30;99.90;;;;;;5069807;28;20285;-68
2023/03/06 01:50:14;;;;;;;34.97;23.40;;;5.20;99.90;;;;;;5114693;28;20356;-68
2023/03/06 01:53:04;;;;;;;37.63;23.80;;;5.00;99.90;;;;;;5115096;28;20224;-68
2023/03/06 01:55:33;;;;;;;37.40;23.70;;;5.10;99.90;;;;;;5114798;28;20179;-69
2023/03/06 01:58:06;;;;;;;35.40;24.13;;;5.00;99.90;;;;;;5114910;28;20308;-69
2023/03/06 02:00:32;;;;;;;39.87;24.33;;;5.10;99.90;;;;;;5114785;28;20206;-68
2023/03/06 02:03:06;;;;;;;38.13;24.43;;;5.00;99.90;;;;;;5114831;28;20171;-68
2023/03/06 02:05:32;;;;;;;38.03;23.60;;;4.90;99.90;;;;;;5114513;28;20641;-67
2023/03/06 02:07:58;;;;;;;39.40;23.70;;;4.80;99.90;;;;;;5114714;28;20219;-69
2023/03/06 02:10:24;;;;;;;36.33;23.70;;;4.90;99.90;;;;;;5114969;28;20167;-69
2023/03/06 02:12:50;;;;;;;38.13;23.30;;;4.90;99.90;;;;;;5114830;28;20645;-69
2023/03/06 02:15:19;;;;;;;37.57;23.43;;;4.90;99.90;;;;;;5114498;28;20201;-67
2023/03/06 02:17:48;;;;;;;39.33;24.87;;;5.00;99.90;;;;;;5096269;28;20293;-69
2023/03/06 02:20:46;;;;;;;42.33;24.93;;;5.10;99.90;;;;;;5114236;28;20185;-68
2023/03/06 02:23:36;;;;;;;39.90;24.37;;;5.00;99.90;;;;;;5011863;28;20580;-68
2023/03/06 02:26:02;;;;;;;43.10;25.33;;;5.10;99.90;;;;;;5012005;28;20205;-67
2023/03/06 02:28:28;;;;;;;43.30;25.73;;;5.10;99.90;;;;;;5011298;28;20256;-68
2023/03/06 02:30:55;;;;;;;43.43;25.97;;;5.10;99.90;;;;;;5012101;28;20179;-68
2023/03/06 02:33:26;;;;;;;42.60;25.23;;;5.00;99.90;;;;;;5011588;28;20261;-68
2023/03/06 02:35:53;;;;;;;39.47;25.30;;;5.10;99.90;;;;;;5011851;28;20179;-68
2023/03/06 02:38:22;;;;;;;40.27;25.07;;;5.10;99.90;;;;;;5011903;28;20232;-68
2023/03/06 02:40:51;;;;;;;41.10;25.37;;;5.10;99.90;;;;;;5011796;28;20185;-68
2023/03/06 02:43:23;;;;;;;41.83;25.63;;;5.10;99.90;;;;;;5011781;28;20173;-69
2023/03/06 02:45:50;;;;;;;45.10;26.43;;;5.00;99.90;;;;;;5011757;28;20175;-68
2023/03/06 02:48:18;;;;;;;41.63;25.43;;;5.10;99.90;;;;;;5011354;28;20210;-69
2023/03/06 02:50:44;;;;;;;46.53;26.30;;;5.00;99.90;;;;;;5011713;28;20178;-67
2023/03/06 02:53:12;;;;;;;43.67;26.33;;;5.10;99.90;;;;;;5011784;28;20182;-68
2023/03/06 02:55:39;;;;;;;43.43;25.83;;;5.20;99.90;;;;;;5011460;28;20182;-68
2023/03/06 02:58:04;;;;;;;40.47;24.90;;;5.20;99.90;;;;;;5011573;28;20201;-68
2023/03/06 03:00:31;;;;;;;43.90;25.63;;;5.20;99.90;;;;;;5086211;28;20199;-68
2023/03/06 03:02:56;;;;;;;43.23;26.60;;;5.20;99.90;;;;;;5093061;28;20195;-68
2023/03/06 03:05:22;;;;;;;43.57;27.03;;;5.10;99.90;;;;;;5093463;28;20225;-68
2023/03/06 03:07:48;;;;;;;47.70;27.20;;;4.90;99.90;;;;;;5093391;28;20203;-68
2023/03/06 03:10:13;;;;;;;43.47;25.77;;;4.90;99.90;;;;;;5093244;28;20175;-68
2023/03/06 03:12:39;;;;;;;46.00;26.83;;;4.90;99.90;;;;;;5093307;28;20213;-68
2023/03/06 03:15:06;;;;;;;41.73;25.43;;;4.80;99.90;;;;;;5093417;28;20258;-68
2023/03/06 03:17:38;;;;;;;46.27;27.07;;;4.80;99.90;;;;;;5092961;28;20179;-68
2023/03/06 03:20:06;;;;;;;47.20;27.40;;;4.70;99.90;;;;;;5075244;28;20653;-67
2023/03/06 03:22:32;;;;;;;47.27;27.87;;;4.70;99.90;;;;;;5096505;28;20214;-68
2023/03/06 03:24:58;;;;;;;51.97;27.90;;;4.80;99.90;;;;;;5113618;28;20167;-68
2023/03/06 03:27:24;;;;;;;48.93;28.87;;;4.90;99.90;;;;;;5113749;28;20211;-68
2023/03/06 03:29:49;;;;;;;47.50;27.77;;;4.90;99.90;;;;;;5113804;28;20595;-68
2023/03/06 03:32:15;;;;;;;49.50;28.93;;;5.10;99.90;;;;;;5113019;28;20507;-67
2023/03/06 03:34:40;;;;;;;52.40;29.53;;;5.00;99.90;;;;;;5113477;28;20255;-68
2023/03/06 03:37:06;;;;;;;49.47;28.50;;;5.00;99.90;;;;;;5113486;28;20638;-67
2023/03/06 03:39:32;;;;;;;48.93;29.03;;;4.80;99.90;;;;;;5116194;28;20167;-69
2023/03/06 03:41:57;;;;;;;46.10;28.63;;;4.90;99.90;;;;;;5117754;28;20171;-68
2023/03/06 03:44:23;;;;;;;51.03;28.83;;;5.00;99.90;;;;;;5117589;28;20174;-68
2023/03/06 03:46:48;;;;;;;47.93;29.90;;;5.00;99.90;;;;;;5116950;28;20202;-68
2023/03/06 03:49:14;;;;;;;50.10;29.73;;;4.90;99.90;;;;;;5117382;28;20182;-68
2023/03/06 03:51:40;;;;;;;49.27;28.27;;;4.80;99.90;;;;;;5099339;28;20175;-69
2023/03/06 03:54:05;;;;;;;54.03;30.33;;;4.80;99.90;;;;;;5117156;28;20171;-67
2023/03/06 03:56:32;;;;;;;50.40;28.43;;;4.80;99.90;;;;;;5117066;28;20176;-68
2023/03/06 03:58:58;;;;;;;45.40;27.40;;;4.60;99.90;;;;;;5117345;28;20206;-68
2023/03/06 04:01:24;;;;;;;48.17;28.27;;;4.70;99.90;;;;;;5116698;28;20260;-69
2023/03/06 04:03:50;;;;;;;50.40;28.90;;;4.70;99.90;;;;;;5117240;28;20579;-68
2023/03/06 04:06:16;;;;;;;45.93;28.13;;;4.70;99.90;;;;;;5117055;28;20229;-68
2023/03/06 04:08:41;;;;;;;46.23;28.63;;;4.60;99.90;;;;;;5117008;28;20242;-67
2023/03/06 04:11:07;;;;;;;49.60;29.70;;;4.60;99.90;;;;;;5117012;28;20630;-68
2023/03/06 04:13:33;;;;;;;47.47;28.87;;;4.70;99.90;;;;;;5117002;28;20202;-68
2023/03/06 04:15:59;;;;;;;49.80;28.90;;;4.60;99.90;;;;;;5116552;28;20187;-67
2023/03/06 04:18:25;;;;;;;47.37;28.07;;;4.50;99.90;;;;;;5116991;28;20663;-69
2023/03/06 04:20:51;;;;;;;49.63;28.60;;;4.50;99.90;;;;;;5116722;28;20171;-70
2023/03/06 04:23:17;;;;;;;52.97;29.20;;;4.50;99.90;;;;;;5116386;28;20215;-69
2023/03/06 04:25:43;;;;;;;57.43;29.40;;;4.50;99.90;;;;;;5116503;28;20194;-68
2023/03/06 04:28:09;;;;;;;51.67;28.77;;;4.50;99.90;;;;;;5116405;28;20700;-69
2023/03/06 04:30:35;;;;;;;51.60;28.43;;;4.50;99.90;;;;;;5116101;28;20578;-68
2023/03/06 04:33:01;;;;;;;58.43;30.03;;;4.40;99.90;;;;;;5116146;28;20460;-68
2023/03/06 04:35:27;;;;;;;48.53;27.97;;;4.40;99.90;;;;;;5116254;28;20246;-68
2023/03/06 04:37:53;;;;;;;49.63;27.63;;;4.40;99.90;;;;;;5116368;28;20167;-68
2023/03/06 04:40:22;;;;;;;50.37;28.43;;;4.40;99.90;;;;;;5116327;28;20163;-69
2023/03/06 04:42:48;;;;;;;53.77;29.63;;;4.40;99.90;;;;;;5116075;28;20242;-69
2023/03/06 04:45:14;;;;;;;47.97;28.27;;;4.40;99.90;;;;;;5115716;28;20171;-69
2023/03/06 04:47:40;;;;;;;52.13;29.03;;;4.50;99.90;;;;;;5116184;28;20203;-68
2023/03/06 04:50:07;;;;;;;51.93;27.97;;;4.50;99.90;;;;;;5115357;28;20171;-69
2023/03/06 04:52:33;;;;;;;52.80;29.37;;;4.50;99.90;;;;;;5116066;28;20205;-67
2023/03/06 04:54:59;;;;;;;49.17;28.27;;;4.40;99.90;;;;;;5115377;28;20639;-69
2023/03/06 04:57:24;;;;;;;48.40;27.30;;;4.40;99.90;;;;;;5115854;28;20167;-69
2023/03/06 04:59:50;;;;;;;49.90;28.27;;;4.40;99.90;;;;;;5115140;28;20706;-68
2023/03/06 05:02:17;;;;;;;48.97;27.37;;;4.70;99.90;;;;;;5115987;28;20504;-68
2023/03/06 05:04:42;;;;;;;48.67;27.47;;;4.50;99.90;;;;;;5115572;28;20174;-69
2023/03/06 05:07:09;;;;;;;47.43;26.90;;;4.50;99.90;;;;;;5115725;28;20740;-69
2023/03/06 05:09:35;;;;;;;48.53;27.57;;;4.40;99.90;;;;;;5115361;28;20167;-68
2023/03/06 05:12:02;;;;;;;47.03;27.07;;;4.30;99.90;;;;;;5115510;28;20185;-67
2023/03/06 05:14:31;;;;;;;47.87;27.83;;;4.40;99.90;;;;;;5114523;28;20183;-68
2023/03/06 05:16:57;;;;;;;47.77;26.73;;;4.50;99.90;;;;;;5097108;28;20614;-70
2023/03/06 05:19:22;;;;;;;48.20;27.20;;;4.50;99.90;;;;;;5115561;28;20251;-68
2023/03/06 05:21:48;;;;;;;48.97;26.30;;;4.50;99.90;;;;;;5115140;28;20232;-69
2023/03/06 05:24:14;;;;;;;46.30;27.57;;;4.50;99.90;;;;;;5115368;28;20689;-69
2023/03/06 05:26:40;;;;;;;51.53;27.90;;;4.60;99.90;;;;;;5114845;28;20292;-69
2023/03/06 05:29:05;;;;;;;48.30;26.67;;;4.40;99.90;;;;;;5114430;28;20182;-69
2023/03/06 05:31:31;;;;;;;48.93;27.53;;;4.40;99.90;;;;;;5114953;28;20270;-68
2023/03/06 05:33:57;;;;;;;42.53;25.70;;;4.50;99.90;;;;;;5114975;28;20189;-69
2023/03/06 05:36:24;;;;;;;48.50;27.77;;;4.40;99.90;;;;;;5114820;28;20266;-69
2023/03/06 05:38:49;;;;;;;49.30;26.87;;;4.40;99.90;;;;;;5115233;28;20176;-68
2023/03/06 05:41:15;;;;;;;52.93;27.73;;;4.40;99.90;;;;;;5114701;28;20584;-69
2023/03/06 05:43:41;;;;;;;45.73;26.17;;;4.50;99.90;;;;;;5114594;28;20179;-69
2023/03/06 05:46:07;;;;;;;46.20;26.77;;;4.40;99.90;;;;;;5114495;28;20171;-69
2023/03/06 05:48:34;;;;;;;44.83;25.90;;;4.50;99.90;;;;;;5114736;28;20271;-69
2023/03/06 05:51:01;;;;;;;45.43;26.03;;;4.40;99.90;;;;;;5114661;28;20257;-68
2023/03/06 05:53:28;;;;;;;45.37;26.67;;;4.40;99.90;;;;;;5114627;28;20179;-68
2023/03/06 05:55:57;;;;;;;46.73;26.47;;;4.50;99.90;;;;;;5114149;28;20224;-68
2023/03/06 05:58:23;;;;;;;50.47;26.90;;;4.40;99.90;;;;;;5113989;28;20175;-68
2023/03/06 06:00:48;;;;;;;49.77;27.43;;;4.40;99.90;;;;;;5114258;28;20207;-68
2023/03/06 06:03:14;;;;;;;48.97;26.77;;;4.50;99.90;;;;;;5113549;28;20186;-68
2023/03/06 06:05:39;;;;;;;51.47;27.80;;;4.60;99.90;;;;;;5113966;28;20175;-68
2023/03/06 06:08:05;;;;;;;45.23;26.17;;;4.50;99.90;;;;;;5113964;28;20252;-68
2023/03/06 06:10:30;;;;;;;49.37;26.70;;;4.60;99.90;;;;;;5113404;28;20258;-67
2023/03/06 06:12:56;;;;;;;45.80;26.60;;;4.60;99.90;;;;;;5095360;28;20228;-68
2023/03/06 06:15:22;;;;;;;46.33;27.07;;;4.60;99.90;;;;;;5113885;28;20171;-68
2023/03/06 06:17:47;;;;;;;50.97;26.83;;;4.60;99.90;;;;;;5114110;28;20610;-67
2023/03/06 06:20:16;;;;;;;46.40;26.97;;;4.60;99.90;;;;;;5113621;28;20182;-68
2023/03/06 06:22:41;;;;;;;53.83;28.27;;;4.70;99.90;;;;;;5114094;28;20275;-68
2023/03/06 06:25:07;;;;;;;45.17;27.43;;;4.60;99.90;;;;;;5112869;28;20171;-68
2023/03/06 06:27:33;;;;;;;49.50;27.87;;;4.70;99.90;;;;;;5113378;28;20207;-68
2023/03/06 06:29:58;;;;;;;50.83;27.93;;;4.70;99.90;;;;;;5113491;28;20199;-67
2023/03/06 06:32:24;;;;;;;49.90;27.27;;;4.80;99.90;;;;;;5113583;28;20201;-68
2023/03/06 06:35:05;;;;;;;53.70;28.40;;;4.80;99.90;;;;;;5110090;27;20568;-68
2023/03/06 06:37:34;;;;;;;56.43;28.80;;;4.70;99.90;;;;;;5110272;28;20167;-68
2023/03/06 06:39:59;;;;;;;52.67;29.00;;;4.70;99.90;;;;;;5110199;28;20176;-69
2023/03/06 06:42:28;;;;;;;51.60;28.50;;;4.70;99.90;;;;;;5110133;28;20668;-69
2023/03/06 06:44:53;;;;;;;49.43;27.70;;;4.80;99.90;;;;;;5109829;28;20167;-68
2023/03/06 06:47:19;;;;;;;53.10;27.77;;;4.80;99.90;;;;;;5109589;28;20590;-68
2023/03/06 06:49:49;;;;;;;50.13;27.97;;;4.90;99.90;;;;;;5109871;28;20178;-68
2023/03/06 06:52:15;;;;;;;44.43;27.07;;;4.80;99.90;;;;;;5109529;28;20171;-68
2023/03/06 06:54:41;;;;;;;48.53;27.30;;;4.90;99.90;;;;;;5109379;28;20203;-68
2023/03/06 06:57:06;;;;;;;49.40;28.13;;;5.00;99.90;;;;;;5109991;28;20198;-68
2023/03/06 06:59:32;;;;;;;49.37;27.93;;;5.00;99.90;;;;;;5108081;28;20179;-69
2023/03/06 07:01:57;;;;;;;49.10;27.60;;;4.90;99.90;;;;;;5108573;28;20574;-68
2023/03/06 07:04:23;;;;;;;47.30;27.17;;;5.10;99.90;;;;;;5108828;28;20507;-69
2023/03/06 07:06:49;;;;;;;49.93;27.73;;;5.10;99.90;;;;;;5109126;28;20626;-69
2023/03/06 07:09:15;;;;;;;51.67;28.80;;;5.20;99.90;;;;;;5108949;28;20189;-68
2023/03/06 07:11:40;;;;;;;52.03;28.87;;;5.20;99.90;;;;;;5109031;28;20205;-68
2023/03/06 07:14:06;;;;;;;44.30;27.57;;;5.20;99.90;;;;;;5109769;28;20631;-69
2023/03/06 07:16:32;;;;;;;57.10;29.30;;;5.10;99.90;;;;;;5109190;28;20257;-67
2023/03/06 07:18:57;;;;;;;50.03;29.10;;;5.00;99.90;;;;;;5108833;28;20652;-67
2023/03/06 07:21:23;;;;;;;50.10;28.50;;;5.10;99.90;;;;;;5108802;28;20168;-68
2023/03/06 07:23:49;;;;;;;52.10;29.27;;;5.30;99.90;;;;;;5108359;28;20175;-67
2023/03/06 07:26:14;;;;;;;52.33;28.40;;;5.40;99.90;;;;;;5109336;28;20179;-67
2023/03/06 07:28:40;;;;;;;49.73;27.87;;;5.50;99.90;;;;;;5108878;28;20236;-69
2023/03/06 07:31:10;;;;;;;53.90;29.27;;;5.80;99.90;;;;;;5108593;28;20182;-67
2023/03/06 07:33:36;;;;;;;50.50;27.67;;;5.90;99.90;;;;;;5108000;28;20230;-67
2023/03/06 07:36:02;;;;;;;52.23;29.50;;;6.00;99.90;;;;;;5108263;28;20225;-66
2023/03/06 07:38:28;;;;;;;51.17;28.37;;;6.30;99.90;;;;;;5107022;28;20179;-67
2023/03/06 07:40:53;;;;;;;52.17;28.93;;;6.10;99.90;;;;;;5108654;28;20167;-66
2023/03/06 07:43:22;;;;;;;51.37;28.33;;;6.20;99.90;;;;;;5108515;28;20171;-67
2023/03/06 07:45:55;;;;;;;49.40;27.47;;;6.80;99.90;;;;;;5097966;28;20168;-67
2023/03/06 07:48:20;;;;;;;51.33;28.83;;;7.60;99.90;;;;;;5094845;28;20619;-68
2023/03/06 07:50:57;;;;;;;45.50;27.10;;;8.60;99.90;;;;;;5093030;28;20175;-68
2023/03/06 07:53:24;;;;;;;39.37;27.00;;;9.60;99.90;;;;;;5092103;28;20219;-66
2023/03/06 07:55:50;;;;;;;43.57;28.67;;;10.40;99.90;;;;;;5094774;28;20179;-69
2023/03/06 07:58:16;;;;;;;38.60;27.30;;;11.30;99.90;;;;;;5093634;28;20172;-68
2023/03/06 08:00:41;;;;;;;42.17;26.33;;;12.00;99.90;;;;;;5093028;28;20624;-69
2023/03/06 08:03:10;;;;;;;51.13;27.57;;;12.60;99.10;;;;;;5094130;28;20176;-69
2023/03/06 08:05:35;;;;;;;38.17;27.40;;;12.90;97.90;;;;;;5094448;28;20183;-69
2023/03/06 08:08:01;;;;;;;39.07;26.93;;;13.30;96.70;;;;;;5094065;28;20563;-68
2023/03/06 08:10:30;;;;;;;41.70;28.87;;;13.40;95.40;;;;;;5095132;28;20618;-68
2023/03/06 08:12:55;;;;;;;37.27;27.77;;;13.90;94.10;;;;;;5082542;28;20227;-68
2023/03/06 08:15:21;;;;;;;38.80;27.60;;;14.50;92.90;;;;;;5074392;28;20537;-69
2023/03/06 08:17:47;;;;;;;40.30;28.13;;;15.10;91.00;;;;;;5074191;28;20689;-69
2023/03/06 08:20:16;;;;;;;40.43;27.63;;;14.80;91.30;;;;;;5075604;28;20180;-67
2023/03/06 08:22:41;;;;;;;47.03;29.17;;;14.00;91.40;;;;;;5079343;28;20172;-68
2023/03/06 08:25:08;;;;;;;33.93;26.73;;;14.40;92.40;;;;;;5073498;28;20583;-68
2023/03/06 08:27:34;;;;;;;42.23;28.70;;;13.50;91.80;;;;;;5074161;28;20195;-69
2023/03/06 08:30:00;;;;;;;39.67;27.60;;;13.80;93.10;;;;;;5074959;28;20531;-68
2023/03/06 08:32:26;;;;;;;38.80;26.70;;;13.70;92.50;;;;;;5073502;28;20272;-67
2023/03/06 08:34:52;;;;;;;38.97;27.43;;;13.50;92.70;;;;;;5087788;28;20281;-69
2023/03/06 08:37:17;;;;;;;38.57;28.13;;;12.80;93.50;;;;;;5076077;28;20762;-68
2023/03/06 08:39:43;;;;;;;37.63;27.40;;;12.60;95.40;;;;;;5073350;28;20196;-67
2023/03/06 08:42:09;;;;;;;39.97;27.20;;;11.90;96.30;;;;;;5085568;28;20180;-68
2023/03/06 08:44:35;;;;;;;41.73;28.47;;;10.90;99.40;;;;;;5087341;28;20200;-67
2023/03/06 08:47:02;;;;;;;38.30;26.70;;;10.60;99.90;;;;;;5073757;28;20235;-67
2023/03/06 08:49:28;;;;;;;43.10;29.27;;;10.30;99.90;;;;;;5073146;28;20168;-67
2023/03/06 08:51:54;;;;;;;41.70;28.23;;;10.20;99.90;;;;;;5083564;28;20225;-66
2023/03/06 08:54:19;;;;;;;47.40;27.93;;;10.10;99.90;;;;;;5080841;28;20216;-67
2023/03/06 08:56:45;;;;;;;45.13;28.23;;;10.00;99.90;;;;;;5072008;28;20180;-68
2023/03/06 08:59:12;;;;;;;43.20;26.57;;;9.90;99.90;;;;;;5075154;28;20188;-68
2023/03/06 09:01:40;;;;;;;41.20;26.87;;;9.80;99.90;;;;;;5084820;28;20203;-67
2023/03/06 09:04:10;;;;;;;37.73;26.53;;;10.60;99.90;;;;;;5074460;28;20225;-68
2023/03/06 09:06:39;;;;;;;42.97;27.40;;;10.80;99.90;;;;;;5070353;28;20176;-68
2023/03/06 09:09:06;;;;;;;37.63;24.57;;;10.70;99.90;;;;;;5076930;28;20180;-69
2023/03/06 09:11:32;;;;;;;35.40;24.53;;;10.00;99.90;;;;;;5080507;28;20172;-68
2023/03/06 09:13:58;;;;;;;37.00;25.07;;;9.10;99.90;;;;;;5093213;28;20257;-69
2023/03/06 09:16:23;;;;;;;37.27;25.10;;;8.80;99.90;;;;;;5089158;28;20665;-69
2023/03/06 09:18:51;;;;;;;37.30;24.93;;;8.60;99.90;;;;;;5082615;28;20365;-70
2023/03/06 09:21:18;;;;;;;36.70;23.80;;;8.50;99.90;;;;;;5087665;28;20180;-70
2023/03/06 09:23:43;;;;;;;44.67;25.87;;;8.20;99.90;;;;;;5093248;28;20183;-71
2023/03/06 09:26:10;;;;;;;42.03;26.13;;;8.10;99.90;;;;;;5091435;28;20580;-70
2023/03/06 09:28:37;;;;;;;44.60;27.17;;;8.00;99.90;;;;;;5087574;28;20629;-68
2023/03/06 09:31:11;;;;;;;40.80;25.37;;;7.80;99.90;;;;;;5073753;28;20291;-69
2023/03/06 09:33:37;;;;;;;52.67;27.30;;;7.90;99.90;;;;;;5072541;28;20836;-68
2023/03/06 09:36:04;;;;;;;44.07;26.70;;;8.20;99.90;;;;;;5072824;28;20215;-67
2023/03/06 09:38:30;;;;;;;42.47;25.60;;;8.50;99.90;;;;;;5082024;28;20180;-67
2023/03/06 09:41:01;;;;;;;41.07;26.83;;;8.60;99.90;;;;;;5079710;28;20190;-68
2023/03/06 09:43:43;;;;;;;48.60;25.80;;;9.00;99.90;;;;;;5078120;28;20195;-68
2023/03/06 09:46:18;;;;;;;38.10;25.17;;;9.40;99.90;;;;;;5092747;28;20171;-69
2023/03/06 09:48:56;;;;;;;37.13;25.43;;;9.90;99.90;;;;;;5099215;28;20721;-68
2023/03/06 09:51:33;;;;;;;39.10;24.80;;;10.00;99.90;;;;;;5086458;28;20256;-68
2023/03/06 09:54:22;;;;;;;42.93;25.90;;;9.80;99.90;;;;;;5090310;28;20212;-68
2023/03/06 09:56:49;;;;;;;43.30;25.63;;;9.80;99.90;;;;;;5082351;28;20180;-69
2023/03/06 09:59:21;;;;;;;37.70;23.83;;;10.00;99.90;;;;;;5076852;28;20290;-68
2023/03/06 10:02:15;;;;;;;42.50;26.43;;;10.00;99.90;;;;;;5087287;28;20225;-68
2023/03/06 10:04:49;;;;;;;42.33;25.57;;;9.80;99.90;;;;;;5087269;28;20184;-68
2023/03/06 10:07:40;;;;;;;39.67;24.33;;;10.00;99.90;;;;;;5071748;28;20161;-69
2023/03/06 10:10:10;;;;;;;32.77;22.37;;;10.30;99.90;;;;;;5075387;28;20176;-69
2023/03/06 10:12:39;;;;;;;45.40;25.03;;;10.00;99.90;;;;;;5070901;28;20183;-69
2023/03/06 10:15:21;;;;;;;37.93;24.47;;;9.80;99.90;;;;;;5082372;28;20356;-69
2023/03/06 10:17:46;;;;;;;36.77;24.17;;;10.40;99.90;;;;;;5085026;28;20184;-67
2023/03/06 10:20:27;;;;;;;34.43;23.53;;;11.40;99.90;;;;;;5103268;28;20171;-68
2023/03/06 10:23:27;;;;;;;31.93;22.80;;;11.70;99.80;;;;;;5102436;28;20175;-68
2023/03/06 10:26:00;;;;;;;35.87;23.23;;;11.30;98.70;;;;;;5053444;28;20215;-69
2023/03/06 10:28:45;;;;;;;35.57;23.03;;;11.00;99.90;;;;;;5072763;28;20719;-69
2023/03/06 10:31:24;;;;;;;34.57;23.60;;;10.90;99.90;;;;;;5076614;28;20236;-69
2023/03/06 10:33:57;;;;;;;34.70;23.50;;;11.40;99.60;;;;;;5071694;28;20228;-69
2023/03/06 10:36:29;;;;;;;38.27;24.23;;;11.90;98.80;;;;;;5083520;28;20227;-69
2023/03/06 10:38:57;;;;;;;30.17;22.03;;;12.30;97.60;;;;;;5074879;28;20240;-70
2023/03/06 10:41:27;;;;;;;33.00;22.73;;;12.60;96.60;;;;;;5074083;28;20267;-69
2023/03/06 10:43:58;;;;;;;30.37;22.60;;;13.00;95.40;;;;;;5082512;28;20219;-68
2023/03/06 10:46:36;;;;;;;31.80;22.17;;;13.40;95.20;;;;;;5088970;28;20200;-70
2023/03/06 10:49:25;;;;;;;33.67;22.77;;;13.90;92.20;;;;;;5090935;28;20175;-70
2023/03/06 10:52:08;;;;;;;36.37;23.47;;;13.60;92.00;;;;;;5082183;28;20177;-69
2023/03/06 10:54:42;;;;;;;31.50;22.53;;;13.20;93.20;;;;;;5078017;28;20391;-70
2023/03/06 10:57:32;;;;;;;32.70;23.37;;;13.30;93.30;;;;;;5082085;28;20172;-69
2023/03/06 11:00:04;;;;;;;32.10;21.17;;;12.50;94.00;;;;;;5080042;28;20246;-69
2023/03/06 11:02:39;;;;;;;25.23;18.50;;;11.60;96.50;;;;;;5073218;28;20177;-68
2023/03/06 11:05:16;;;;;;;24.97;16.77;;;11.50;94.80;;;;;;5086472;28;20184;-67
2023/03/06 11:07:58;;;;;;;26.10;18.43;;;9.70;97.50;;;;;;5091341;28;20641;-68
2023/03/06 11:10:24;;;;;;;24.27;17.53;;;9.90;98.30;;;;;;5091841;28;20622;-70
2023/03/06 11:13:09;;;;;;;26.80;17.97;;;9.70;98.50;;;;;;5086427;28;20649;-70
2023/03/06 11:15:35;;;;;;;28.03;19.33;;;9.70;98.80;;;;;;5083909;28;20635;-67
2023/03/06 11:18:26;;;;;;;27.90;18.97;;;10.00;98.20;;;;;;5080905;28;20198;-69
2023/03/06 11:20:54;;;;;;;29.27;19.17;;;9.80;98.70;;;;;;5071677;28;20221;-68
2023/03/06 11:23:38;;;;;;;26.77;18.63;;;9.80;98.80;;;;;;5080266;28;20179;-69
2023/03/06 11:26:15;;;;;;;26.53;18.97;;;9.60;99.00;;;;;;5115720;28;20616;-69
2023/03/06 11:28:59;;;;;;;28.77;18.80;;;9.50;99.60;;;;;;5103297;28;20191;-68
2023/03/06 11:31:35;;;;;;;29.97;19.40;;;9.70;99.50;;;;;;5083383;28;20179;-68
2023/03/06 11:34:17;;;;;;;26.30;17.90;;;9.90;99.50;;;;;;5081290;28;20227;-68
2023/03/06 11:36:46;;;;;;;27.50;18.50;;;9.90;98.60;;;;;;5094636;28;20171;-69
2023/03/06 11:39:25;;;;;;;25.73;17.13;;;9.80;98.70;;;;;;5093628;28;20183;-67
2023/03/06 11:42:06;;;;;;;26.57;17.53;;;9.40;98.90;;;;;;5085468;28;20309;-68
2023/03/06 11:44:39;;;;;;;26.23;17.10;;;9.50;99.10;;;;;;5087076;28;20176;-70
2023/03/06 11:47:13;;;;;;;24.67;17.43;;;9.30;98.50;;;;;;5091422;28;20180;-69
2023/03/06 11:49:44;;;;;;;24.73;16.67;;;9.70;97.80;;;;;;5093523;28;20681;-68
2023/03/06 11:52:21;;;;;;;22.97;16.10;;;9.90;97.30;;;;;;5094976;28;20207;-69
2023/03/06 11:54:51;;;;;;;24.70;16.00;;;10.00;96.30;;;;;;5082454;28;20690;-70
2023/03/06 11:57:21;;;;;;;26.17;16.70;;;10.00;96.30;;;;;;5086836;28;20262;-67
2023/03/06 12:00:22;;;;;;;23.30;17.07;;;10.10;96.30;;;;;;5088470;28;20197;-67
2023/03/06 12:03:15;;;;;;;25.07;16.97;;;10.40;96.40;;;;;;5054054;28;20196;-68
2023/03/06 12:06:13;;;;;;;26.67;17.57;;;10.60;95.80;;;;;;5082811;28;20186;-68
2023/03/06 12:09:06;;;;;;;30.03;18.93;;;10.50;95.50;;;;;;5052353;28;20188;-68
2023/03/06 12:11:37;;;;;;;27.17;18.07;;;10.10;97.20;;;;;;5077971;28;20202;-67
2023/03/06 12:14:13;;;;;;;27.33;18.17;;;10.10;97.40;;;;;;5086678;28;20204;-69
2023/03/06 12:16:57;;;;;;;28.90;18.87;;;10.10;97.40;;;;;;5085739;28;20191;-68
2023/03/06 12:19:56;;;;;;;26.73;19.53;;;10.20;97.50;;;;;;5096637;28;20186;-68
2023/03/06 12:22:43;;;;;;;27.13;18.50;;;10.10;97.40;;;;;;5074935;28;20176;-68
2023/03/06 12:25:26;;;;;;;27.97;18.97;;;9.80;98.60;;;;;;5091103;28;20188;-68
2023/03/06 12:28:35;;;;;;;25.00;17.10;;;9.90;98.50;;;;;;5084935;28;20199;-68
2023/03/06 12:31:27;;;;;;;28.33;17.43;;;10.00;97.40;;;;;;5041883;28;20195;-68
2023/03/06 12:34:04;;;;;;;39.90;26.03;;;10.10;96.70;;;;;;5079220;28;20215;-70
2023/03/06 12:36:38;;;;;;;28.57;18.10;;;10.10;95.50;;;;;;5072678;28;20191;-68
2023/03/06 12:39:16;;;;;;;29.23;19.00;;;10.10;95.70;;;;;;5085761;28;20175;-68
2023/03/06 12:42:17;;;;;;;30.63;20.90;;;9.60;97.30;;;;;;5073293;28;20163;-69
2023/03/06 12:45:10;;;;;;;27.10;18.97;;;9.60;98.00;;;;;;5001341;28;20178;-68
2023/03/06 12:47:43;;;;;;;32.10;20.57;;;9.30;98.30;;;;;;5089761;28;20249;-70